sensor_id;sensor_type;location;lat;lon;timestamp;P1;durP1;ratioP1;P2;durP2;ratioP2
22270;SDS011;11304;53.520;10.104;2022-12-18T00:01:26;29.60;;;16.73;;
22270;SDS011;11304;53.520;10.104;2022-12-18T00:03:53;27.02;;;16.33;;
22270;SDS011;11304;53.520;10.104;2022-12-18T00:06:20;25.63;;;14.98;;
22270;SDS011;11304;53.520;10.104;2022-12-18T00:08:46;28.10;;;15.75;;
22270;SDS011;11304;53.520;10.104;2022-12-18T00:11:13;28.35;;;16.30;;
22270;SDS011;11304;53.520;10.104;2022-12-18T00:13:40;28.98;;;15.60;;
22270;SDS011;11304;53.520;10.104;2022-12-18T00:16:07;31.50;;;17.00;;
22270;SDS011;11304;53.520;10.104;2022-12-18T00:18:34;29.83;;;16.08;;
22270;SDS011;11304;53.520;10.104;2022-12-18T00:21:01;26.80;;;16.77;;
22270;SDS011;11304;53.520;10.104;2022-12-18T00:23:28;29.75;;;16.85;;
22270;SDS011;11304;53.520;10.104;2022-12-18T00:25:54;28.42;;;16.08;;
22270;SDS011;11304;53.520;10.104;2022-12-18T00:28:20;30.10;;;16.65;;
22270;SDS011;11304;53.520;10.104;2022-12-18T00:30:46;30.27;;;15.75;;
22270;SDS011;11304;53.520;10.104;2022-12-18T00:33:16;30.38;;;15.18;;
22270;SDS011;11304;53.520;10.104;2022-12-18T00:35:42;25.80;;;14.65;;
22270;SDS011;11304;53.520;10.104;2022-12-18T00:38:08;27.90;;;16.00;;
22270;SDS011;11304;53.520;10.104;2022-12-18T00:40:34;27.90;;;15.05;;
22270;SDS011;11304;53.520;10.104;2022-12-18T00:43:00;28.95;;;15.18;;
22270;SDS011;11304;53.520;10.104;2022-12-18T00:45:27;27.35;;;15.18;;
22270;SDS011;11304;53.520;10.104;2022-12-18T00:47:54;25.33;;;10.90;;
22270;SDS011;11304;53.520;10.104;2022-12-18T00:50:20;27.00;;;14.93;;
22270;SDS011;11304;53.520;10.104;2022-12-18T00:52:46;31.65;;;15.80;;
22270;SDS011;11304;53.520;10.104;2022-12-18T00:55:12;30.73;;;15.18;;
22270;SDS011;11304;53.520;10.104;2022-12-18T00:57:39;28.15;;;14.93;;
22270;SDS011;11304;53.520;10.104;2022-12-18T01:00:06;27.77;;;15.52;;
22270;SDS011;11304;53.520;10.104;2022-12-18T01:02:32;27.10;;;15.73;;
22270;SDS011;11304;53.520;10.104;2022-12-18T01:04:58;28.65;;;15.45;;
22270;SDS011;11304;53.520;10.104;2022-12-18T01:07:25;30.95;;;16.38;;
22270;SDS011;11304;53.520;10.104;2022-12-18T01:09:51;29.00;;;16.65;;
22270;SDS011;11304;53.520;10.104;2022-12-18T01:12:17;27.42;;;15.07;;
22270;SDS011;11304;53.520;10.104;2022-12-18T01:14:43;27.35;;;14.52;;
22270;SDS011;11304;53.520;10.104;2022-12-18T01:17:09;27.90;;;14.68;;
22270;SDS011;11304;53.520;10.104;2022-12-18T01:19:35;25.25;;;14.23;;
22270;SDS011;11304;53.520;10.104;2022-12-18T01:22:01;27.98;;;14.50;;
22270;SDS011;11304;53.520;10.104;2022-12-18T01:24:28;30.95;;;15.60;;
22270;SDS011;11304;53.520;10.104;2022-12-18T01:26:54;32.47;;;14.60;;
22270;SDS011;11304;53.520;10.104;2022-12-18T01:29:22;32.13;;;15.85;;
22270;SDS011;11304;53.520;10.104;2022-12-18T01:31:48;24.35;;;13.80;;
22270;SDS011;11304;53.520;10.104;2022-12-18T01:34:14;28.67;;;14.75;;
22270;SDS011;11304;53.520;10.104;2022-12-18T01:36:40;27.10;;;14.23;;
22270;SDS011;11304;53.520;10.104;2022-12-18T01:39:09;27.00;;;13.98;;
22270;SDS011;11304;53.520;10.104;2022-12-18T01:41:36;28.15;;;13.43;;
22270;SDS011;11304;53.520;10.104;2022-12-18T01:47:05;29.60;;;13.60;;
22270;SDS011;11304;53.520;10.104;2022-12-18T01:49:32;26.83;;;13.65;;
22270;SDS011;11304;53.520;10.104;2022-12-18T01:51:58;23.20;;;13.20;;
22270;SDS011;11304;53.520;10.104;2022-12-18T01:54:24;24.52;;;14.05;;
22270;SDS011;11304;53.520;10.104;2022-12-18T01:56:50;26.98;;;13.77;;
22270;SDS011;11304;53.520;10.104;2022-12-18T01:59:16;31.20;;;14.10;;
22270;SDS011;11304;53.520;10.104;2022-12-18T02:01:42;23.02;;;13.05;;
22270;SDS011;11304;53.520;10.104;2022-12-18T02:04:21;26.55;;;13.35;;
22270;SDS011;11304;53.520;10.104;2022-12-18T02:06:48;19.48;;;11.93;;
22270;SDS011;11304;53.520;10.104;2022-12-18T02:09:18;25.75;;;12.55;;
22270;SDS011;11304;53.520;10.104;2022-12-18T02:11:50;22.10;;;12.07;;
22270;SDS011;11304;53.520;10.104;2022-12-18T02:16:59;23.30;;;11.95;;
22270;SDS011;11304;53.520;10.104;2022-12-18T02:22:18;23.23;;;11.95;;
22270;SDS011;11304;53.520;10.104;2022-12-18T02:27:15;23.83;;;12.45;;
22270;SDS011;11304;53.520;10.104;2022-12-18T02:29:44;24.75;;;13.27;;
22270;SDS011;11304;53.520;10.104;2022-12-18T02:32:17;25.98;;;12.68;;
22270;SDS011;11304;53.520;10.104;2022-12-18T02:34:45;26.45;;;12.48;;
22270;SDS011;11304;53.520;10.104;2022-12-18T02:37:13;22.58;;;12.20;;
22270;SDS011;11304;53.520;10.104;2022-12-18T02:39:41;22.80;;;11.93;;
22270;SDS011;11304;53.520;10.104;2022-12-18T02:42:09;29.15;;;13.63;;
22270;SDS011;11304;53.520;10.104;2022-12-18T02:44:46;24.77;;;12.45;;
22270;SDS011;11304;53.520;10.104;2022-12-18T02:47:13;26.27;;;12.15;;
22270;SDS011;11304;53.520;10.104;2022-12-18T02:49:45;23.52;;;12.73;;
22270;SDS011;11304;53.520;10.104;2022-12-18T03:00:16;23.05;;;11.43;;
22270;SDS011;11304;53.520;10.104;2022-12-18T03:05:20;24.15;;;11.23;;
22270;SDS011;11304;53.520;10.104;2022-12-18T03:08:10;22.70;;;11.55;;
22270;SDS011;11304;53.520;10.104;2022-12-18T03:10:35;22.80;;;12.13;;
22270;SDS011;11304;53.520;10.104;2022-12-18T03:13:08;19.88;;;10.80;;
22270;SDS011;11304;53.520;10.104;2022-12-18T03:15:36;19.05;;;10.05;;
22270;SDS011;11304;53.520;10.104;2022-12-18T03:18:04;22.02;;;11.43;;
22270;SDS011;11304;53.520;10.104;2022-12-18T03:20:34;22.52;;;11.52;;
22270;SDS011;11304;53.520;10.104;2022-12-18T03:23:09;22.02;;;11.23;;
22270;SDS011;11304;53.520;10.104;2022-12-18T03:25:37;17.92;;;10.98;;
22270;SDS011;11304;53.520;10.104;2022-12-18T03:28:05;24.02;;;11.52;;
22270;SDS011;11304;53.520;10.104;2022-12-18T03:30:33;20.58;;;11.23;;
22270;SDS011;11304;53.520;10.104;2022-12-18T03:35:37;21.67;;;11.68;;
22270;SDS011;11304;53.520;10.104;2022-12-18T03:38:05;24.65;;;12.38;;
22270;SDS011;11304;53.520;10.104;2022-12-18T03:40:33;21.33;;;11.52;;
22270;SDS011;11304;53.520;10.104;2022-12-18T03:43:07;22.80;;;11.30;;
22270;SDS011;11304;53.520;10.104;2022-12-18T03:45:36;21.73;;;11.05;;
22270;SDS011;11304;53.520;10.104;2022-12-18T03:48:37;20.63;;;11.07;;
22270;SDS011;11304;53.520;10.104;2022-12-18T03:50:56;21.20;;;10.55;;
22270;SDS011;11304;53.520;10.104;2022-12-18T03:55:51;17.05;;;10.10;;
22270;SDS011;11304;53.520;10.104;2022-12-18T03:58:19;22.95;;;10.35;;
22270;SDS011;11304;53.520;10.104;2022-12-18T04:00:47;22.13;;;10.25;;
22270;SDS011;11304;53.520;10.104;2022-12-18T04:03:13;17.45;;;9.32;;
22270;SDS011;11304;53.520;10.104;2022-12-18T04:05:40;18.42;;;9.70;;
22270;SDS011;11304;53.520;10.104;2022-12-18T04:08:07;17.75;;;10.70;;
22270;SDS011;11304;53.520;10.104;2022-12-18T04:10:34;17.50;;;8.93;;
22270;SDS011;11304;53.520;10.104;2022-12-18T04:13:00;19.45;;;10.20;;
22270;SDS011;11304;53.520;10.104;2022-12-18T04:15:26;18.55;;;10.20;;
22270;SDS011;11304;53.520;10.104;2022-12-18T04:17:52;23.92;;;10.30;;
22270;SDS011;11304;53.520;10.104;2022-12-18T04:20:18;15.40;;;9.73;;
22270;SDS011;11304;53.520;10.104;2022-12-18T04:22:44;18.92;;;10.45;;
22270;SDS011;11304;53.520;10.104;2022-12-18T04:25:12;23.77;;;10.70;;
22270;SDS011;11304;53.520;10.104;2022-12-18T04:27:38;21.90;;;11.25;;
22270;SDS011;11304;53.520;10.104;2022-12-18T04:30:04;19.25;;;11.18;;
22270;SDS011;11304;53.520;10.104;2022-12-18T07:45:09;26.92;;;13.77;;
22270;SDS011;11304;53.520;10.104;2022-12-18T07:47:35;27.45;;;15.07;;
22270;SDS011;11304;53.520;10.104;2022-12-18T07:50:03;26.98;;;14.02;;
22270;SDS011;11304;53.520;10.104;2022-12-18T07:52:29;26.63;;;13.97;;
22270;SDS011;11304;53.520;10.104;2022-12-18T07:54:56;25.77;;;13.25;;
22270;SDS011;11304;53.520;10.104;2022-12-18T07:57:22;30.05;;;14.27;;
22270;SDS011;11304;53.520;10.104;2022-12-18T07:59:48;31.27;;;15.02;;
22270;SDS011;11304;53.520;10.104;2022-12-18T08:02:14;28.05;;;14.45;;
22270;SDS011;11304;53.520;10.104;2022-12-18T08:04:40;28.00;;;14.00;;
22270;SDS011;11304;53.520;10.104;2022-12-18T08:07:06;30.83;;;15.50;;
22270;SDS011;11304;53.520;10.104;2022-12-18T08:09:32;28.38;;;14.45;;
22270;SDS011;11304;53.520;10.104;2022-12-18T08:11:59;27.00;;;14.88;;
22270;SDS011;11304;53.520;10.104;2022-12-18T08:14:25;25.92;;;14.38;;
22270;SDS011;11304;53.520;10.104;2022-12-18T08:16:51;29.55;;;13.43;;
22270;SDS011;11304;53.520;10.104;2022-12-18T08:19:17;31.08;;;15.35;;
22270;SDS011;11304;53.520;10.104;2022-12-18T08:21:43;25.33;;;14.43;;
22270;SDS011;11304;53.520;10.104;2022-12-18T08:24:09;28.05;;;14.77;;
22270;SDS011;11304;53.520;10.104;2022-12-18T08:26:36;30.33;;;14.95;;
22270;SDS011;11304;53.520;10.104;2022-12-18T08:29:02;28.38;;;14.55;;
22270;SDS011;11304;53.520;10.104;2022-12-18T08:31:29;29.65;;;14.75;;
22270;SDS011;11304;53.520;10.104;2022-12-18T08:33:56;29.85;;;14.35;;
22270;SDS011;11304;53.520;10.104;2022-12-18T08:36:22;24.45;;;13.90;;
22270;SDS011;11304;53.520;10.104;2022-12-18T08:38:49;25.83;;;14.43;;
22270;SDS011;11304;53.520;10.104;2022-12-18T08:41:16;26.75;;;14.13;;
22270;SDS011;11304;53.520;10.104;2022-12-18T08:43:42;27.35;;;14.90;;
22270;SDS011;11304;53.520;10.104;2022-12-18T08:46:27;24.33;;;14.07;;
22270;SDS011;11304;53.520;10.104;2022-12-18T08:48:56;25.40;;;14.18;;
22270;SDS011;11304;53.520;10.104;2022-12-18T08:51:23;29.67;;;14.68;;
22270;SDS011;11304;53.520;10.104;2022-12-18T08:53:49;27.35;;;14.63;;
22270;SDS011;11304;53.520;10.104;2022-12-18T08:56:15;22.67;;;13.82;;
22270;SDS011;11304;53.520;10.104;2022-12-18T08:58:41;30.50;;;14.77;;
22270;SDS011;11304;53.520;10.104;2022-12-18T09:01:09;27.15;;;14.80;;
22270;SDS011;11304;53.520;10.104;2022-12-18T09:03:36;27.00;;;13.75;;
22270;SDS011;11304;53.520;10.104;2022-12-18T09:06:02;26.63;;;14.40;;
22270;SDS011;11304;53.520;10.104;2022-12-18T09:08:28;30.55;;;14.23;;
22270;SDS011;11304;53.520;10.104;2022-12-18T09:10:54;27.17;;;13.50;;
22270;SDS011;11304;53.520;10.104;2022-12-18T09:13:21;29.48;;;14.85;;
22270;SDS011;11304;53.520;10.104;2022-12-18T09:15:48;29.92;;;14.18;;
22270;SDS011;11304;53.520;10.104;2022-12-18T09:18:15;32.85;;;16.40;;
22270;SDS011;11304;53.520;10.104;2022-12-18T09:20:41;28.23;;;15.40;;
22270;SDS011;11304;53.520;10.104;2022-12-18T09:23:07;30.50;;;15.60;;
22270;SDS011;11304;53.520;10.104;2022-12-18T09:25:34;26.15;;;13.55;;
22270;SDS011;11304;53.520;10.104;2022-12-18T09:28:04;29.45;;;15.00;;
22270;SDS011;11304;53.520;10.104;2022-12-18T09:30:31;26.88;;;15.18;;
22270;SDS011;11304;53.520;10.104;2022-12-18T09:32:59;29.10;;;14.23;;
22270;SDS011;11304;53.520;10.104;2022-12-18T09:35:25;24.92;;;13.75;;
22270;SDS011;11304;53.520;10.104;2022-12-18T09:37:53;26.17;;;13.57;;
22270;SDS011;11304;53.520;10.104;2022-12-18T09:40:20;25.10;;;14.55;;
22270;SDS011;11304;53.520;10.104;2022-12-18T09:42:48;26.63;;;14.48;;
22270;SDS011;11304;53.520;10.104;2022-12-18T09:45:15;24.90;;;14.15;;
22270;SDS011;11304;53.520;10.104;2022-12-18T09:47:42;23.08;;;13.60;;
22270;SDS011;11304;53.520;10.104;2022-12-18T09:52:45;27.98;;;14.13;;
22270;SDS011;11304;53.520;10.104;2022-12-18T09:58:24;23.20;;;13.80;;
22270;SDS011;11304;53.520;10.104;2022-12-18T10:00:52;27.40;;;13.82;;
22270;SDS011;11304;53.520;10.104;2022-12-18T10:03:18;24.30;;;13.48;;
22270;SDS011;11304;53.520;10.104;2022-12-18T10:08:13;24.73;;;13.88;;
22270;SDS011;11304;53.520;10.104;2022-12-18T10:10:51;23.27;;;13.45;;
22270;SDS011;11304;53.520;10.104;2022-12-18T10:20:46;23.38;;;13.18;;
22270;SDS011;11304;53.520;10.104;2022-12-18T10:25:50;25.48;;;14.85;;
22270;SDS011;11304;53.520;10.104;2022-12-18T10:28:17;24.15;;;13.93;;
22270;SDS011;11304;53.520;10.104;2022-12-18T10:30:44;24.05;;;14.27;;
22270;SDS011;11304;53.520;10.104;2022-12-18T10:33:21;27.63;;;14.90;;
22270;SDS011;11304;53.520;10.104;2022-12-18T10:35:49;24.67;;;14.60;;
22270;SDS011;11304;53.520;10.104;2022-12-18T10:43:23;29.73;;;15.68;;
22270;SDS011;11304;53.520;10.104;2022-12-18T10:48:25;28.13;;;14.75;;
22270;SDS011;11304;53.520;10.104;2022-12-18T10:50:52;30.23;;;15.73;;
22270;SDS011;11304;53.520;10.104;2022-12-18T10:53:25;29.20;;;16.33;;
22270;SDS011;11304;53.520;10.104;2022-12-18T10:55:52;30.30;;;16.98;;
22270;SDS011;11304;53.520;10.104;2022-12-18T11:00:45;31.20;;;16.20;;
22270;SDS011;11304;53.520;10.104;2022-12-18T11:06:12;33.08;;;16.83;;
22270;SDS011;11304;53.520;10.104;2022-12-18T11:08:38;26.10;;;14.73;;
22270;SDS011;11304;53.520;10.104;2022-12-18T11:11:06;27.27;;;14.68;;
22270;SDS011;11304;53.520;10.104;2022-12-18T11:13:33;33.10;;;16.80;;
22270;SDS011;11304;53.520;10.104;2022-12-18T11:15:59;28.98;;;15.63;;
22270;SDS011;11304;53.520;10.104;2022-12-18T11:18:26;27.48;;;16.02;;
22270;SDS011;11304;53.520;10.104;2022-12-18T11:20:54;30.17;;;16.73;;
22270;SDS011;11304;53.520;10.104;2022-12-18T11:23:22;29.38;;;15.95;;
22270;SDS011;11304;53.520;10.104;2022-12-18T11:25:59;32.08;;;17.02;;
22270;SDS011;11304;53.520;10.104;2022-12-18T11:28:29;27.35;;;15.63;;
22270;SDS011;11304;53.520;10.104;2022-12-18T11:33:46;29.98;;;16.52;;
22270;SDS011;11304;53.520;10.104;2022-12-18T11:36:15;33.03;;;16.42;;
22270;SDS011;11304;53.520;10.104;2022-12-18T11:38:41;28.33;;;15.43;;
22270;SDS011;11304;53.520;10.104;2022-12-18T11:46:14;31.88;;;15.52;;
22270;SDS011;11304;53.520;10.104;2022-12-18T11:51:33;30.65;;;16.25;;
22270;SDS011;11304;53.520;10.104;2022-12-18T11:54:00;30.85;;;16.45;;
22270;SDS011;11304;53.520;10.104;2022-12-18T11:56:32;29.30;;;16.27;;
22270;SDS011;11304;53.520;10.104;2022-12-18T12:20:06;29.77;;;15.90;;
22270;SDS011;11304;53.520;10.104;2022-12-18T12:36:02;29.00;;;15.30;;
22270;SDS011;11304;53.520;10.104;2022-12-18T12:38:40;30.83;;;15.45;;
22270;SDS011;11304;53.520;10.104;2022-12-18T12:41:12;32.13;;;15.20;;
22270;SDS011;11304;53.520;10.104;2022-12-18T12:44:16;29.05;;;14.40;;
22270;SDS011;11304;53.520;10.104;2022-12-18T12:46:43;30.55;;;13.48;;
22270;SDS011;11304;53.520;10.104;2022-12-18T12:49:11;32.30;;;15.60;;
22270;SDS011;11304;53.520;10.104;2022-12-18T12:51:39;32.63;;;16.15;;
22270;SDS011;11304;53.520;10.104;2022-12-18T12:54:11;24.60;;;12.00;;
22270;SDS011;11304;53.520;10.104;2022-12-18T12:56:40;28.98;;;15.70;;
22270;SDS011;11304;53.520;10.104;2022-12-18T12:59:13;29.85;;;15.32;;
22270;SDS011;11304;53.520;10.104;2022-12-18T13:12:25;29.60;;;14.70;;
22270;SDS011;11304;53.520;10.104;2022-12-18T13:15:20;29.40;;;15.25;;
22270;SDS011;11304;53.520;10.104;2022-12-18T13:17:46;29.05;;;14.95;;
22270;SDS011;11304;53.520;10.104;2022-12-18T13:20:13;31.10;;;15.35;;
22270;SDS011;11304;53.520;10.104;2022-12-18T13:28:15;29.08;;;14.93;;
22270;SDS011;11304;53.520;10.104;2022-12-18T13:30:41;27.50;;;14.85;;
22270;SDS011;11304;53.520;10.104;2022-12-18T13:40:57;31.85;;;15.60;;
22270;SDS011;11304;53.520;10.104;2022-12-18T13:43:26;28.23;;;15.20;;
22270;SDS011;11304;53.520;10.104;2022-12-18T13:46:06;35.50;;;16.13;;
22270;SDS011;11304;53.520;10.104;2022-12-18T13:48:49;33.70;;;15.25;;
22270;SDS011;11304;53.520;10.104;2022-12-18T13:51:16;31.42;;;15.13;;
22270;SDS011;11304;53.520;10.104;2022-12-18T13:53:44;28.70;;;15.50;;
22270;SDS011;11304;53.520;10.104;2022-12-18T13:56:20;31.45;;;15.80;;
22270;SDS011;11304;53.520;10.104;2022-12-18T13:59:02;31.90;;;15.52;;
22270;SDS011;11304;53.520;10.104;2022-12-18T14:01:28;30.50;;;15.50;;
22270;SDS011;11304;53.520;10.104;2022-12-18T14:07:04;33.38;;;15.10;;
22270;SDS011;11304;53.520;10.104;2022-12-18T14:09:34;32.45;;;15.18;;
22270;SDS011;11304;53.520;10.104;2022-12-18T14:12:01;37.55;;;15.70;;
22270;SDS011;11304;53.520;10.104;2022-12-18T14:14:47;32.00;;;15.68;;
22270;SDS011;11304;53.520;10.104;2022-12-18T14:17:14;23.57;;;11.77;;
22270;SDS011;11304;53.520;10.104;2022-12-18T14:19:41;33.30;;;15.35;;
22270;SDS011;11304;53.520;10.104;2022-12-18T14:22:18;35.15;;;15.15;;
22270;SDS011;11304;53.520;10.104;2022-12-18T14:24:46;34.03;;;16.98;;
22270;SDS011;11304;53.520;10.104;2022-12-18T14:27:22;35.42;;;16.50;;
22270;SDS011;11304;53.520;10.104;2022-12-18T14:29:48;35.45;;;16.60;;
22270;SDS011;11304;53.520;10.104;2022-12-18T14:34:45;34.28;;;17.80;;
22270;SDS011;11304;53.520;10.104;2022-12-18T14:37:13;35.65;;;17.77;;
22270;SDS011;11304;53.520;10.104;2022-12-18T14:39:39;39.45;;;17.90;;
22270;SDS011;11304;53.520;10.104;2022-12-18T14:42:09;35.47;;;16.75;;
22270;SDS011;11304;53.520;10.104;2022-12-18T14:44:35;35.70;;;17.02;;
22270;SDS011;11304;53.520;10.104;2022-12-18T18:57:22;25.95;;;12.88;;
22270;SDS011;11304;53.520;10.104;2022-12-18T18:59:48;26.52;;;12.95;;
22270;SDS011;11304;53.520;10.104;2022-12-18T19:02:15;22.15;;;11.85;;
22270;SDS011;11304;53.520;10.104;2022-12-18T19:04:41;19.38;;;11.88;;
22270;SDS011;11304;53.520;10.104;2022-12-18T19:07:09;20.45;;;11.43;;
22270;SDS011;11304;53.520;10.104;2022-12-18T19:09:35;24.02;;;11.95;;
22270;SDS011;11304;53.520;10.104;2022-12-18T19:12:02;23.00;;;11.48;;
22270;SDS011;11304;53.520;10.104;2022-12-18T19:14:47;21.73;;;11.05;;
22270;SDS011;11304;53.520;10.104;2022-12-18T19:17:13;22.77;;;11.68;;
22270;SDS011;11304;53.520;10.104;2022-12-18T19:19:39;23.65;;;11.13;;
22270;SDS011;11304;53.520;10.104;2022-12-18T19:22:05;25.90;;;12.13;;
22270;SDS011;11304;53.520;10.104;2022-12-18T19:24:31;20.90;;;11.13;;
22270;SDS011;11304;53.520;10.104;2022-12-18T19:26:57;24.83;;;12.57;;
22270;SDS011;11304;53.520;10.104;2022-12-18T19:29:24;24.85;;;11.85;;
22270;SDS011;11304;53.520;10.104;2022-12-18T19:31:50;23.15;;;12.05;;
22270;SDS011;11304;53.520;10.104;2022-12-18T19:34:16;21.95;;;12.68;;
22270;SDS011;11304;53.520;10.104;2022-12-18T19:36:42;22.48;;;10.98;;
22270;SDS011;11304;53.520;10.104;2022-12-18T19:39:10;26.33;;;12.85;;
22270;SDS011;11304;53.520;10.104;2022-12-18T19:41:36;25.58;;;12.13;;
22270;SDS011;11304;53.520;10.104;2022-12-18T19:44:03;22.00;;;10.65;;
22270;SDS011;11304;53.520;10.104;2022-12-18T19:46:29;26.40;;;12.60;;
22270;SDS011;11304;53.520;10.104;2022-12-18T19:48:55;24.88;;;12.55;;
22270;SDS011;11304;53.520;10.104;2022-12-18T19:51:24;27.05;;;13.10;;
22270;SDS011;11304;53.520;10.104;2022-12-18T19:53:50;28.42;;;12.40;;
22270;SDS011;11304;53.520;10.104;2022-12-18T19:56:18;24.85;;;12.75;;
22270;SDS011;11304;53.520;10.104;2022-12-18T19:58:45;25.27;;;13.07;;
22270;SDS011;11304;53.520;10.104;2022-12-18T20:01:12;26.00;;;12.63;;
22270;SDS011;11304;53.520;10.104;2022-12-18T20:03:38;25.17;;;12.85;;
22270;SDS011;11304;53.520;10.104;2022-12-18T20:06:16;28.10;;;13.30;;
22270;SDS011;11304;53.520;10.104;2022-12-18T20:08:43;26.23;;;13.20;;
22270;SDS011;11304;53.520;10.104;2022-12-18T20:11:09;25.98;;;14.20;;
22270;SDS011;11304;53.520;10.104;2022-12-18T20:13:36;27.15;;;13.05;;
22270;SDS011;11304;53.520;10.104;2022-12-18T20:16:02;25.45;;;12.25;;
22270;SDS011;11304;53.520;10.104;2022-12-18T20:18:28;25.10;;;13.25;;
22270;SDS011;11304;53.520;10.104;2022-12-18T20:20:54;25.75;;;13.63;;
22270;SDS011;11304;53.520;10.104;2022-12-18T20:23:21;24.77;;;12.55;;
22270;SDS011;11304;53.520;10.104;2022-12-18T20:25:47;27.80;;;13.30;;
22270;SDS011;11304;53.520;10.104;2022-12-18T20:28:13;28.42;;;13.65;;
22270;SDS011;11304;53.520;10.104;2022-12-18T20:30:39;29.50;;;13.70;;
22270;SDS011;11304;53.520;10.104;2022-12-18T20:33:05;25.25;;;13.27;;
22270;SDS011;11304;53.520;10.104;2022-12-18T20:35:32;27.73;;;12.98;;
22270;SDS011;11304;53.520;10.104;2022-12-18T20:37:58;26.30;;;14.07;;
22270;SDS011;11304;53.520;10.104;2022-12-18T20:40:24;27.33;;;13.90;;
22270;SDS011;11304;53.520;10.104;2022-12-18T20:42:51;25.13;;;13.20;;
22270;SDS011;11304;53.520;10.104;2022-12-18T20:45:17;29.60;;;14.18;;
22270;SDS011;11304;53.520;10.104;2022-12-18T20:47:43;29.95;;;14.60;;
22270;SDS011;11304;53.520;10.104;2022-12-18T20:50:10;27.40;;;14.57;;
22270;SDS011;11304;53.520;10.104;2022-12-18T20:52:36;26.02;;;14.75;;
22270;SDS011;11304;53.520;10.104;2022-12-18T20:55:02;26.88;;;15.07;;
22270;SDS011;11304;53.520;10.104;2022-12-18T20:57:28;34.17;;;16.00;;
22270;SDS011;11304;53.520;10.104;2022-12-18T20:59:55;30.15;;;14.38;;
22270;SDS011;11304;53.520;10.104;2022-12-18T21:02:21;26.40;;;13.93;;
22270;SDS011;11304;53.520;10.104;2022-12-18T21:04:47;29.42;;;15.15;;
22270;SDS011;11304;53.520;10.104;2022-12-18T21:07:13;26.05;;;13.98;;
22270;SDS011;11304;53.520;10.104;2022-12-18T21:09:39;31.27;;;14.55;;
22270;SDS011;11304;53.520;10.104;2022-12-18T21:12:07;28.67;;;14.32;;
22270;SDS011;11304;53.520;10.104;2022-12-18T21:14:54;29.75;;;15.00;;
22270;SDS011;11304;53.520;10.104;2022-12-18T21:17:20;28.58;;;13.75;;
22270;SDS011;11304;53.520;10.104;2022-12-18T21:19:46;32.17;;;15.55;;
22270;SDS011;11304;53.520;10.104;2022-12-18T21:22:12;29.48;;;13.63;;
22270;SDS011;11304;53.520;10.104;2022-12-18T21:24:38;26.27;;;14.05;;
22270;SDS011;11304;53.520;10.104;2022-12-18T21:27:04;28.30;;;15.00;;
22270;SDS011;11304;53.520;10.104;2022-12-18T21:29:31;28.52;;;15.32;;
22270;SDS011;11304;53.520;10.104;2022-12-18T21:31:57;26.58;;;14.57;;
22270;SDS011;11304;53.520;10.104;2022-12-18T21:34:24;36.13;;;16.13;;
22270;SDS011;11304;53.520;10.104;2022-12-18T21:36:51;29.92;;;14.57;;
22270;SDS011;11304;53.520;10.104;2022-12-18T21:39:17;30.00;;;15.40;;
22270;SDS011;11304;53.520;10.104;2022-12-18T21:41:43;32.25;;;16.65;;
22270;SDS011;11304;53.520;10.104;2022-12-18T21:44:28;30.23;;;15.95;;
22270;SDS011;11304;53.520;10.104;2022-12-18T21:46:54;28.83;;;15.85;;
22270;SDS011;11304;53.520;10.104;2022-12-18T21:49:20;31.85;;;16.30;;
22270;SDS011;11304;53.520;10.104;2022-12-18T21:51:51;30.38;;;15.90;;
22270;SDS011;11304;53.520;10.104;2022-12-18T21:54:17;32.60;;;15.43;;
22270;SDS011;11304;53.520;10.104;2022-12-18T21:59:13;28.38;;;14.48;;
22270;SDS011;11304;53.520;10.104;2022-12-18T22:01:40;33.72;;;16.58;;
22270;SDS011;11304;53.520;10.104;2022-12-18T22:04:06;32.55;;;16.40;;
22270;SDS011;11304;53.520;10.104;2022-12-18T22:06:32;28.27;;;15.50;;
22270;SDS011;11304;53.520;10.104;2022-12-18T22:08:58;31.38;;;16.13;;
22270;SDS011;11304;53.520;10.104;2022-12-18T22:11:24;31.08;;;16.60;;
22270;SDS011;11304;53.520;10.104;2022-12-18T22:13:50;32.35;;;15.70;;
22270;SDS011;11304;53.520;10.104;2022-12-18T22:16:16;33.70;;;17.45;;
22270;SDS011;11304;53.520;10.104;2022-12-18T22:18:43;34.08;;;18.17;;
22270;SDS011;11304;53.520;10.104;2022-12-18T22:21:25;31.35;;;15.32;;
22270;SDS011;11304;53.520;10.104;2022-12-18T22:23:52;31.10;;;16.08;;
22270;SDS011;11304;53.520;10.104;2022-12-18T22:26:18;35.78;;;16.90;;
22270;SDS011;11304;53.520;10.104;2022-12-18T22:28:44;31.83;;;16.25;;
22270;SDS011;11304;53.520;10.104;2022-12-18T22:31:29;36.30;;;16.88;;
22270;SDS011;11304;53.520;10.104;2022-12-18T22:33:55;33.55;;;16.48;;
22270;SDS011;11304;53.520;10.104;2022-12-18T22:36:22;31.63;;;16.55;;
22270;SDS011;11304;53.520;10.104;2022-12-18T22:38:48;29.48;;;16.15;;
22270;SDS011;11304;53.520;10.104;2022-12-18T22:41:14;32.85;;;16.05;;
22270;SDS011;11304;53.520;10.104;2022-12-18T22:43:42;33.72;;;16.13;;
22270;SDS011;11304;53.520;10.104;2022-12-18T22:46:17;29.30;;;16.25;;
22270;SDS011;11304;53.520;10.104;2022-12-18T22:48:44;33.33;;;16.55;;
22270;SDS011;11304;53.520;10.104;2022-12-18T22:51:14;33.13;;;16.40;;
22270;SDS011;11304;53.520;10.104;2022-12-18T22:53:41;31.23;;;16.35;;
22270;SDS011;11304;53.520;10.104;2022-12-18T22:56:07;29.98;;;15.43;;
22270;SDS011;11304;53.520;10.104;2022-12-18T22:58:33;31.98;;;16.95;;
22270;SDS011;11304;53.520;10.104;2022-12-18T23:00:59;30.77;;;16.48;;
22270;SDS011;11304;53.520;10.104;2022-12-18T23:03:26;28.85;;;15.85;;
22270;SDS011;11304;53.520;10.104;2022-12-18T23:05:52;28.63;;;16.10;;
22270;SDS011;11304;53.520;10.104;2022-12-18T23:08:19;32.67;;;16.40;;
22270;SDS011;11304;53.520;10.104;2022-12-18T23:10:45;30.25;;;16.27;;
22270;SDS011;11304;53.520;10.104;2022-12-18T23:13:11;33.28;;;16.25;;
22270;SDS011;11304;53.520;10.104;2022-12-18T23:15:41;30.67;;;16.05;;
22270;SDS011;11304;53.520;10.104;2022-12-18T23:18:07;31.45;;;16.77;;
22270;SDS011;11304;53.520;10.104;2022-12-18T23:20:33;36.63;;;17.45;;
22270;SDS011;11304;53.520;10.104;2022-12-18T23:22:59;34.15;;;16.63;;
22270;SDS011;11304;53.520;10.104;2022-12-18T23:25:25;32.10;;;17.02;;
22270;SDS011;11304;53.520;10.104;2022-12-18T23:27:51;34.22;;;17.17;;
22270;SDS011;11304;53.520;10.104;2022-12-18T23:30:18;30.60;;;16.77;;
22270;SDS011;11304;53.520;10.104;2022-12-18T23:32:44;36.33;;;17.50;;
22270;SDS011;11304;53.520;10.104;2022-12-18T23:35:10;33.13;;;16.25;;
22270;SDS011;11304;53.520;10.104;2022-12-18T23:37:36;30.50;;;15.65;;
22270;SDS011;11304;53.520;10.104;2022-12-18T23:40:02;32.30;;;16.75;;
22270;SDS011;11304;53.520;10.104;2022-12-18T23:42:28;33.38;;;16.35;;
22270;SDS011;11304;53.520;10.104;2022-12-18T23:44:54;31.92;;;16.05;;
22270;SDS011;11304;53.520;10.104;2022-12-18T23:47:21;30.50;;;15.68;;
22270;SDS011;11304;53.520;10.104;2022-12-18T23:49:47;32.03;;;16.67;;
22270;SDS011;11304;53.520;10.104;2022-12-18T23:52:13;32.67;;;16.70;;